Time;durP1;ratioP1;P1;durP2;ratioP2;P2;SDS_P1;SDS_P2;PMS_P1;PMS_P2;Temp;Humidity;BMP_temperature;BMP_pressure;BME280_temperature;BME280_humidity;BME280_pressure;Samples;Min_cycle;Max_cycle;Signal;HPM_P1;HPM_P2
2022/10/09 00:01:05;;;;;;;1.30;1.13;;;19.80;61.80;;;;;;5067376;28;20021;-68
2022/10/09 00:03:31;;;;;;;1.60;1.23;;;19.80;61.10;;;;;;5067321;28;20028;-68
2022/10/09 00:05:57;;;;;;;1.48;1.15;;;19.80;61.10;;;;;;5067260;28;20063;-68
2022/10/09 00:08:23;;;;;;;1.70;1.27;;;19.80;61.10;;;;;;5067300;28;20059;-69
2022/10/09 00:10:49;;;;;;;1.30;1.20;;;19.80;61.10;;;;;;5067063;28;20020;-68
2022/10/09 00:13:14;;;;;;;1.23;1.13;;;19.80;61.20;;;;;;5067127;28;20021;-68
2022/10/09 00:15:42;;;;;;;1.15;1.05;;;19.80;61.20;;;;;;5067098;28;20090;-68
2022/10/09 00:18:11;;;;;;;1.33;1.10;;;19.80;61.20;;;;;;5067067;28;20013;-68
2022/10/09 00:20:42;;;;;;;1.50;1.40;;;19.80;61.20;;;;;;5067045;28;20075;-67
2022/10/09 00:23:09;;;;;;;1.38;1.15;;;19.80;61.20;;;;;;5067015;28;20043;-68
2022/10/09 00:25:35;;;;;;;1.33;1.20;;;19.80;61.20;;;;;;5066941;28;20027;-68
2022/10/09 00:28:02;;;;;;;1.58;1.38;;;19.80;61.20;;;;;;5066913;28;20020;-67
2022/10/09 00:30:28;;;;;;;0.95;0.88;;;19.80;61.20;;;;;;5066871;28;20025;-69
2022/10/09 00:32:54;;;;;;;1.30;1.17;;;19.70;61.20;;;;;;5066706;28;20099;-68
2022/10/09 00:35:20;;;;;;;1.30;1.10;;;19.70;61.20;;;;;;5066754;28;20028;-68
2022/10/09 00:37:47;;;;;;;1.13;1.02;;;19.80;61.20;;;;;;5066740;28;20059;-68
2022/10/09 00:40:14;;;;;;;1.05;1.02;;;19.80;61.20;;;;;;5066671;28;20024;-68
2022/10/09 00:42:39;;;;;;;1.30;1.10;;;19.70;61.10;;;;;;5066584;28;20084;-68
2022/10/09 00:45:06;;;;;;;1.10;1.00;;;19.80;61.20;;;;;;5066536;28;20025;-67
2022/10/09 00:47:46;;;;;;;2.60;1.23;;;19.70;61.10;;;;;;5066558;28;20025;-67
2022/10/09 00:50:23;;;;;;;1.30;1.20;;;19.80;61.20;;;;;;5066489;28;20048;-68
2022/10/09 00:52:53;;;;;;;1.63;1.15;;;19.70;61.20;;;;;;5066373;28;20024;-69
2022/10/09 00:55:23;;;;;;;1.20;1.10;;;19.70;61.10;;;;;;5066403;28;20017;-69
2022/10/09 00:57:51;;;;;;;1.35;1.25;;;19.70;61.10;;;;;;5066321;28;20020;-68
2022/10/09 01:00:17;;;;;;;1.23;1.13;;;19.80;61.20;;;;;;5066321;28;20012;-68
2022/10/09 01:02:43;;;;;;;1.10;0.98;;;19.70;61.20;;;;;;5066161;28;20067;-67
2022/10/09 01:05:10;;;;;;;1.60;1.40;;;19.80;61.20;;;;;;5066166;28;20025;-68
2022/10/09 01:07:56;;;;;;;1.48;1.30;;;19.80;61.20;;;;;;5066136;28;20047;-68
2022/10/09 01:10:57;;;;;;;0.93;0.93;;;19.70;61.20;;;;;;5066099;28;20021;-69
2022/10/09 01:13:23;;;;;;;1.25;1.15;;;19.80;61.30;;;;;;5062365;28;20068;-68
2022/10/09 01:15:57;;;;;;;1.15;1.05;;;19.70;61.20;;;;;;5065958;28;20084;-68
2022/10/09 01:18:23;;;;;;;1.23;1.13;;;19.70;61.20;;;;;;5065971;28;20075;-67
2022/10/09 01:20:49;;;;;;;1.20;1.10;;;19.70;61.20;;;;;;5065885;28;20313;-68
2022/10/09 01:23:36;;;;;;;1.63;1.52;;;19.70;61.20;;;;;;5065822;28;20076;-68
2022/10/09 01:26:20;;;;;;;1.20;1.10;;;19.70;61.20;;;;;;5064658;28;20013;-68
2022/10/09 01:28:51;;;;;;;2.05;1.15;;;19.70;61.20;;;;;;5065742;28;20017;-68
2022/10/09 01:31:18;;;;;;;1.00;0.98;;;19.70;61.20;;;;;;5065680;28;20021;-68
2022/10/09 01:33:44;;;;;;;1.00;0.90;;;19.70;61.20;;;;;;5065627;28;20116;-68
2022/10/09 01:36:10;;;;;;;1.60;1.50;;;19.70;61.20;;;;;;5065652;28;20017;-67
2022/10/09 01:38:39;;;;;;;1.17;1.08;;;19.70;61.20;;;;;;5065573;28;20085;-68
2022/10/09 01:41:06;;;;;;;0.90;0.82;;;19.70;61.20;;;;;;5065517;28;20027;-69
2022/10/09 01:43:33;;;;;;;1.30;1.23;;;19.70;61.20;;;;;;5065526;28;20209;-68
2022/10/09 01:46:25;;;;;;;1.20;1.10;;;19.70;61.20;;;;;;5065370;28;20254;-68
2022/10/09 01:49:12;;;;;;;1.65;1.42;;;19.70;61.20;;;;;;5065426;28;20019;-70
2022/10/09 01:51:56;;;;;;;1.30;1.10;;;19.70;61.20;;;;;;5065300;28;20024;-68
2022/10/09 01:54:33;;;;;;;1.98;1.38;;;19.70;61.20;;;;;;5065289;28;20040;-68
2022/10/09 01:57:01;;;;;;;1.40;1.30;;;19.70;61.20;;;;;;5064135;28;20017;-68
2022/10/09 01:59:28;;;;;;;1.45;1.35;;;19.70;61.20;;;;;;5065251;28;20025;-68
2022/10/09 02:01:57;;;;;;;1.27;1.17;;;19.60;61.20;;;;;;5065151;28;20304;-68
2022/10/09 02:04:25;;;;;;;1.30;1.20;;;19.70;61.20;;;;;;5065089;28;20025;-68
2022/10/09 02:06:51;;;;;;;1.85;1.50;;;19.70;61.20;;;;;;5065000;28;20012;-68
2022/10/09 02:09:17;;;;;;;1.20;1.10;;;19.70;61.20;;;;;;5065050;28;20024;-68
2022/10/09 02:11:48;;;;;;;1.52;1.20;;;19.60;61.10;;;;;;5064627;28;20036;-68
2022/10/09 02:14:14;;;;;;;1.83;1.30;;;19.70;61.20;;;;;;5064598;28;20094;-69
2022/10/09 02:16:45;;;;;;;1.10;1.00;;;19.60;61.20;;;;;;5064678;28;20197;-69
2022/10/09 02:19:22;;;;;;;1.17;1.08;;;19.60;61.20;;;;;;5064783;28;20265;-68
2022/10/09 02:22:04;;;;;;;1.55;1.45;;;19.60;61.20;;;;;;5064809;28;20028;-68
2022/10/09 02:24:30;;;;;;;1.15;1.08;;;19.70;61.30;;;;;;5064718;28;20021;-69
2022/10/09 02:26:57;;;;;;;1.33;1.23;;;19.70;61.30;;;;;;5064693;28;20301;-69
2022/10/09 02:29:23;;;;;;;1.60;1.40;;;19.70;61.20;;;;;;5064585;28;20028;-69
2022/10/09 02:31:49;;;;;;;1.45;1.27;;;19.70;61.20;;;;;;5064476;28;20017;-68
2022/10/09 02:34:19;;;;;;;1.40;1.30;;;19.70;61.20;;;;;;5063603;28;20036;-68
2022/10/09 02:36:46;;;;;;;1.23;1.13;;;19.70;61.30;;;;;;5064448;28;20099;-68
2022/10/09 02:39:12;;;;;;;1.10;1.00;;;19.70;61.30;;;;;;5064397;28;20025;-68
2022/10/09 02:41:38;;;;;;;1.30;1.20;;;19.70;61.30;;;;;;5064348;28;20256;-67
2022/10/09 02:44:05;;;;;;;1.38;1.27;;;19.60;61.20;;;;;;5064298;28;20048;-68
2022/10/09 02:46:31;;;;;;;1.40;1.30;;;19.60;61.20;;;;;;5063090;28;20213;-69
2022/10/09 02:48:56;;;;;;;1.13;1.02;;;19.70;61.30;;;;;;5064226;28;20025;-68
2022/10/09 02:51:23;;;;;;;1.15;1.05;;;19.60;61.20;;;;;;5064099;28;20024;-68
2022/10/09 02:53:51;;;;;;;1.80;1.17;;;19.70;61.30;;;;;;5064125;28;20024;-68
2022/10/09 02:56:17;;;;;;;1.30;1.20;;;19.60;61.20;;;;;;5064149;28;20036;-68
2022/10/09 02:58:43;;;;;;;1.50;1.33;;;19.60;61.20;;;;;;5064019;28;20190;-68
2022/10/09 03:01:09;;;;;;;1.70;1.50;;;19.60;61.20;;;;;;5064024;28;20183;-68
2022/10/09 03:03:34;;;;;;;1.20;1.10;;;19.60;61.20;;;;;;5062771;28;20047;-68
2022/10/09 03:06:04;;;;;;;1.33;1.23;;;19.60;61.20;;;;;;5063897;28;20013;-68
2022/10/09 03:08:31;;;;;;;1.48;1.38;;;19.60;61.20;;;;;;5063905;28;20423;-68
2022/10/09 03:10:57;;;;;;;1.45;1.20;;;19.60;61.30;;;;;;5063726;28;20036;-68
2022/10/09 03:13:25;;;;;;;1.98;1.48;;;19.60;61.20;;;;;;5063718;28;20021;-68
2022/10/09 03:15:51;;;;;;;1.33;1.23;;;19.60;61.30;;;;;;5063724;28;20119;-69
2022/10/09 03:18:17;;;;;;;1.30;1.20;;;19.60;61.40;;;;;;5063691;28;20021;-68
2022/10/09 03:20:43;;;;;;;1.42;1.33;;;19.60;61.30;;;;;;5063724;28;20024;-68
2022/10/09 03:23:09;;;;;;;1.40;1.30;;;19.60;61.40;;;;;;5063651;28;20312;-68
2022/10/09 03:25:34;;;;;;;1.40;1.30;;;19.60;61.30;;;;;;5063567;28;20025;-69
2022/10/09 03:28:00;;;;;;;1.45;1.13;;;19.60;61.30;;;;;;5062815;28;20029;-68
2022/10/09 03:30:26;;;;;;;2.00;1.48;;;19.60;61.30;;;;;;5063569;28;20268;-68
2022/10/09 03:32:51;;;;;;;1.55;1.40;;;19.60;61.30;;;;;;5063467;28;20020;-68
2022/10/09 03:35:17;;;;;;;1.33;1.20;;;19.60;61.40;;;;;;5063499;28;20017;-67
2022/10/09 03:37:43;;;;;;;1.50;1.40;;;19.60;62.00;;;;;;5063469;28;20036;-67
2022/10/09 03:40:09;;;;;;;1.58;1.30;;;19.60;61.40;;;;;;5063468;28;20021;-68
2022/10/09 03:42:35;;;;;;;1.10;1.08;;;19.60;61.40;;;;;;5063420;28;20017;-68
2022/10/09 03:45:03;;;;;;;1.50;1.30;;;19.60;61.30;;;;;;5063367;28;20032;-67
2022/10/09 03:47:30;;;;;;;1.38;1.27;;;19.60;61.30;;;;;;5063367;28;20259;-67
2022/10/09 03:49:56;;;;;;;1.73;1.63;;;19.50;61.30;;;;;;5063355;28;20025;-68
2022/10/09 03:52:22;;;;;;;1.25;1.15;;;19.50;61.30;;;;;;5063236;28;20063;-68
2022/10/09 03:54:48;;;;;;;2.03;1.30;;;19.60;61.30;;;;;;5063304;28;20078;-68
2022/10/09 03:57:14;;;;;;;1.63;1.48;;;19.50;61.30;;;;;;5063302;28;20041;-69
2022/10/09 03:59:40;;;;;;;1.20;1.10;;;19.60;61.40;;;;;;5063283;28;20103;-68
2022/10/09 04:02:06;;;;;;;1.50;1.40;;;19.60;61.40;;;;;;5063268;28;20021;-68
2022/10/09 04:04:31;;;;;;;1.90;1.52;;;19.50;61.30;;;;;;5063217;28;20032;-68
2022/10/09 04:06:57;;;;;;;1.40;1.30;;;19.50;61.30;;;;;;5063186;28;20140;-68
2022/10/09 04:09:23;;;;;;;1.70;1.40;;;19.60;61.40;;;;;;5063145;28;20045;-67
2022/10/09 04:11:48;;;;;;;1.67;1.45;;;19.60;61.30;;;;;;5062909;28;20394;-68
2022/10/09 04:14:14;;;;;;;1.50;1.40;;;19.50;61.20;;;;;;5063151;28;20020;-68
2022/10/09 04:16:40;;;;;;;1.30;1.20;;;19.50;61.30;;;;;;5063099;28;20013;-69
2022/10/09 04:19:05;;;;;;;1.83;1.70;;;19.50;61.30;;;;;;5063061;28;20021;-68
2022/10/09 04:21:32;;;;;;;1.52;1.42;;;19.50;61.20;;;;;;5063088;28;20044;-68
2022/10/09 04:23:58;;;;;;;1.80;1.70;;;19.50;61.30;;;;;;5063037;28;20074;-69
2022/10/09 04:26:24;;;;;;;1.58;1.48;;;19.50;61.30;;;;;;5063050;28;20316;-69
2022/10/09 04:28:49;;;;;;;1.30;1.20;;;19.50;61.30;;;;;;5063002;28;20029;-67
2022/10/09 04:31:15;;;;;;;1.33;1.23;;;19.50;61.30;;;;;;5062847;28;20209;-68
2022/10/09 04:33:41;;;;;;;1.30;1.20;;;19.50;61.30;;;;;;5062917;28;20115;-68
2022/10/09 04:36:07;;;;;;;1.55;1.33;;;19.50;61.30;;;;;;5062922;28;20372;-69
2022/10/09 04:38:32;;;;;;;1.55;1.45;;;19.50;61.20;;;;;;5064672;28;20319;-69
2022/10/09 04:41:03;;;;;;;1.27;1.05;;;19.50;61.30;;;;;;5066661;28;20044;-68
2022/10/09 04:43:30;;;;;;;1.52;1.42;;;19.50;61.30;;;;;;5066686;28;20021;-68
2022/10/09 04:45:55;;;;;;;1.98;1.63;;;19.50;61.30;;;;;;5066554;28;20024;-68
2022/10/09 04:48:21;;;;;;;1.50;1.35;;;19.50;61.30;;;;;;5066526;28;20062;-69
2022/10/09 04:50:47;;;;;;;1.35;1.25;;;19.50;61.20;;;;;;5066498;28;20028;-68
2022/10/09 04:53:13;;;;;;;1.70;1.58;;;19.50;61.30;;;;;;5066335;28;20080;-67
2022/10/09 04:55:41;;;;;;;1.42;1.25;;;19.50;61.30;;;;;;5066380;28;20063;-67
2022/10/09 04:58:08;;;;;;;1.67;1.42;;;19.50;61.30;;;;;;5066363;28;20076;-68
2022/10/09 05:00:34;;;;;;;1.63;1.40;;;19.50;61.30;;;;;;5066316;28;20084;-68
2022/10/09 05:02:59;;;;;;;1.65;1.40;;;19.50;61.30;;;;;;5066258;28;20021;-68
2022/10/09 05:05:25;;;;;;;1.13;1.05;;;19.50;61.30;;;;;;5066206;28;20025;-68
2022/10/09 05:07:51;;;;;;;1.58;1.35;;;19.50;61.30;;;;;;5066182;28;20022;-69
2022/10/09 05:10:16;;;;;;;1.40;1.30;;;19.50;61.30;;;;;;5066087;28;20043;-69
2022/10/09 05:12:42;;;;;;;1.90;1.80;;;19.50;61.30;;;;;;5065690;28;20041;-68
2022/10/09 05:15:08;;;;;;;1.73;1.63;;;19.50;61.30;;;;;;5066023;28;20017;-68
2022/10/09 05:17:34;;;;;;;1.95;1.40;;;19.50;61.30;;;;;;5065988;28;20324;-69
2022/10/09 05:20:00;;;;;;;1.63;1.52;;;19.50;61.30;;;;;;5065945;28;20076;-68
2022/10/09 05:22:25;;;;;;;1.35;1.25;;;19.50;61.20;;;;;;5065887;28;20087;-69
2022/10/09 05:24:51;;;;;;;1.40;1.30;;;19.50;61.30;;;;;;5065857;28;20021;-67
2022/10/09 05:27:17;;;;;;;1.70;1.25;;;19.50;61.30;;;;;;5065771;28;20044;-68
2022/10/09 05:29:42;;;;;;;1.30;1.20;;;19.50;61.30;;;;;;5065751;28;20020;-69
2022/10/09 05:32:08;;;;;;;1.50;1.40;;;19.50;61.30;;;;;;5065673;28;20216;-68
2022/10/09 05:34:34;;;;;;;1.33;1.23;;;19.50;61.30;;;;;;5065678;28;20072;-68
2022/10/09 05:37:00;;;;;;;1.50;1.40;;;19.50;61.30;;;;;;5065690;28;20021;-69
2022/10/09 05:39:25;;;;;;;2.15;1.25;;;19.50;61.30;;;;;;5065610;28;20371;-69
2022/10/09 05:41:51;;;;;;;1.50;1.40;;;19.50;61.30;;;;;;5065543;28;20025;-68
2022/10/09 05:44:17;;;;;;;1.40;1.30;;;19.50;61.20;;;;;;5065493;28;20070;-69
2022/10/09 05:46:42;;;;;;;1.88;1.65;;;19.50;61.20;;;;;;5065402;28;20220;-68
2022/10/09 05:49:09;;;;;;;1.75;1.55;;;19.50;61.30;;;;;;5064876;28;20062;-68
2022/10/09 05:51:37;;;;;;;2.10;1.52;;;19.50;61.20;;;;;;5064968;28;20021;-68
2022/10/09 05:54:04;;;;;;;1.50;1.40;;;19.50;61.20;;;;;;5065354;28;20017;-67
2022/10/09 05:56:32;;;;;;;1.55;1.45;;;19.50;61.20;;;;;;5065251;28;20020;-68
2022/10/09 05:59:03;;;;;;;1.50;1.40;;;19.50;61.30;;;;;;5065305;28;20048;-68
2022/10/09 06:01:34;;;;;;;1.60;1.50;;;19.50;61.30;;;;;;5065243;28;20027;-68
2022/10/09 06:04:01;;;;;;;1.45;1.30;;;19.50;61.20;;;;;;5065133;28;20025;-69
2022/10/09 06:06:29;;;;;;;2.28;1.35;;;19.50;61.20;;;;;;5065069;28;20024;-69
2022/10/09 06:08:55;;;;;;;1.42;1.33;;;19.50;61.20;;;;;;5065036;28;20025;-69
2022/10/09 06:11:32;;;;;;;1.75;1.42;;;19.50;61.20;;;;;;5064744;28;20021;-69
2022/10/09 06:13:59;;;;;;;1.40;1.30;;;19.50;61.20;;;;;;5064924;28;20259;-68
2022/10/09 06:16:27;;;;;;;1.65;1.30;;;19.50;61.20;;;;;;5064902;28;20021;-68
2022/10/09 06:18:54;;;;;;;2.40;1.58;;;19.50;61.20;;;;;;5064846;28;20016;-67
2022/10/09 06:21:21;;;;;;;1.48;1.38;;;19.50;61.30;;;;;;5064803;28;20021;-69
2022/10/09 06:23:51;;;;;;;1.90;1.58;;;19.50;61.20;;;;;;5064755;28;20017;-69
2022/10/09 06:26:18;;;;;;;1.25;1.15;;;19.50;61.20;;;;;;5064733;28;20076;-68
2022/10/09 06:28:44;;;;;;;2.50;1.40;;;19.50;61.10;;;;;;5064669;28;20045;-68
2022/10/09 06:31:14;;;;;;;1.55;1.25;;;19.50;61.20;;;;;;5064560;28;20043;-68
2022/10/09 06:33:41;;;;;;;1.70;1.60;;;19.50;61.10;;;;;;5064551;28;20066;-69
2022/10/09 06:36:09;;;;;;;1.20;1.10;;;19.50;61.10;;;;;;5064488;28;20016;-68
2022/10/09 06:38:36;;;;;;;1.88;1.38;;;19.50;61.10;;;;;;5063343;28;20201;-67
2022/10/09 06:41:10;;;;;;;1.30;1.20;;;19.50;61.10;;;;;;5064400;28;20028;-69
2022/10/09 06:43:37;;;;;;;1.67;1.58;;;19.50;61.10;;;;;;5064372;28;20036;-69
2022/10/09 06:46:06;;;;;;;1.75;1.45;;;19.50;61.10;;;;;;5064295;28;20076;-68
2022/10/09 06:48:34;;;;;;;1.50;1.15;;;19.50;61.10;;;;;;5064237;28;20017;-68
2022/10/09 06:51:01;;;;;;;1.63;1.52;;;19.50;61.10;;;;;;5064248;28;20021;-68
2022/10/09 06:53:27;;;;;;;1.52;1.42;;;19.50;61.00;;;;;;5064125;28;20080;-68
2022/10/09 06:55:54;;;;;;;1.20;1.10;;;19.50;61.00;;;;;;5064124;28;20040;-68
2022/10/09 06:58:20;;;;;;;1.55;1.45;;;19.60;61.10;;;;;;5064108;28;20013;-69
2022/10/09 07:00:46;;;;;;;1.50;1.33;;;19.50;61.10;;;;;;5064196;28;20021;-69
2022/10/09 07:03:12;;;;;;;1.85;1.50;;;19.50;61.10;;;;;;5063988;28;20332;-68
2022/10/09 07:05:38;;;;;;;1.60;1.23;;;19.50;61.20;;;;;;5063972;28;20092;-68
2022/10/09 07:08:04;;;;;;;1.40;1.30;;;19.50;61.20;;;;;;5063925;28;20084;-69
2022/10/09 07:10:29;;;;;;;1.52;1.42;;;19.50;61.20;;;;;;5063864;28;20025;-68
2022/10/09 07:12:55;;;;;;;1.60;1.50;;;19.50;61.10;;;;;;5063593;28;20036;-68
2022/10/09 07:15:21;;;;;;;1.42;1.33;;;19.50;61.10;;;;;;5063806;28;20020;-68
2022/10/09 07:17:46;;;;;;;1.60;1.42;;;19.50;61.00;;;;;;5063745;28;20078;-69
2022/10/09 07:20:12;;;;;;;1.45;1.35;;;19.60;61.10;;;;;;5063736;28;20017;-68
2022/10/09 07:22:38;;;;;;;1.95;1.85;;;19.60;61.10;;;;;;5063720;28;20021;-68
2022/10/09 07:25:04;;;;;;;1.40;1.30;;;19.60;61.00;;;;;;5063741;28;20048;-70
2022/10/09 07:27:30;;;;;;;1.75;1.65;;;19.60;60.90;;;;;;5063639;28;20017;-69
2022/10/09 07:29:56;;;;;;;1.48;1.38;;;19.70;60.80;;;;;;5063629;28;20084;-69
2022/10/09 07:32:22;;;;;;;1.67;1.52;;;19.70;60.70;;;;;;5063505;28;20044;-69
2022/10/09 07:34:47;;;;;;;2.50;1.50;;;19.70;60.70;;;;;;5063552;28;20367;-68
2022/10/09 07:37:13;;;;;;;2.10;1.55;;;19.70;60.60;;;;;;5063463;28;20024;-68
2022/10/09 07:39:39;;;;;;;1.38;1.27;;;19.70;60.70;;;;;;5063512;28;20213;-69
2022/10/09 07:42:05;;;;;;;1.67;1.58;;;19.70;60.70;;;;;;5063465;28;20204;-68
2022/10/09 07:44:31;;;;;;;1.75;1.52;;;19.70;60.70;;;;;;5063415;28;20032;-68
2022/10/09 07:46:56;;;;;;;1.63;1.52;;;19.70;60.60;;;;;;5062248;28;20048;-68
2022/10/09 07:49:22;;;;;;;1.65;1.55;;;19.80;60.70;;;;;;5063404;28;20080;-68
2022/10/09 07:51:48;;;;;;;1.20;1.10;;;19.70;60.60;;;;;;5063301;28;20313;-69
2022/10/09 07:54:13;;;;;;;1.50;1.40;;;19.80;60.70;;;;;;5063329;28;20028;-67
2022/10/09 07:56:39;;;;;;;1.38;1.27;;;19.70;60.70;;;;;;5063313;28;20205;-68
2022/10/09 07:59:10;;;;;;;1.48;1.38;;;19.70;60.60;;;;;;5063276;28;20021;-67
2022/10/09 08:01:37;;;;;;;1.67;1.58;;;19.80;60.70;;;;;;5063282;28;20063;-68
2022/10/09 08:04:04;;;;;;;1.70;1.60;;;19.70;60.70;;;;;;5063260;28;20328;-67
2022/10/09 08:06:30;;;;;;;1.40;1.30;;;19.70;60.70;;;;;;5063236;28;20335;-68
2022/10/09 08:08:58;;;;;;;1.52;1.42;;;19.70;60.80;;;;;;5063271;28;20084;-69
2022/10/09 08:11:26;;;;;;;1.40;1.30;;;19.70;60.80;;;;;;5062937;28;20359;-69
2022/10/09 08:13:52;;;;;;;1.60;1.50;;;19.70;60.90;;;;;;5065671;28;20017;-69
2022/10/09 08:16:20;;;;;;;1.40;1.30;;;19.70;61.00;;;;;;5067202;28;20164;-68
2022/10/09 08:18:46;;;;;;;1.30;1.20;;;19.60;60.90;;;;;;5067085;28;20363;-68
2022/10/09 08:21:15;;;;;;;1.98;1.77;;;19.60;60.90;;;;;;5067097;28;20070;-68
2022/10/09 08:23:40;;;;;;;;;;;19.70;60.90;;;;;;5067470;28;20084;-70
2022/10/09 08:26:14;;;;;;;1.98;1.20;;;19.70;61.00;;;;;;5066972;28;19901;-69
2022/10/09 08:28:39;;;;;;;1.50;1.40;;;19.70;61.00;;;;;;5066943;28;20021;-68
2022/10/09 08:31:10;;;;;;;1.50;1.40;;;19.70;61.00;;;;;;5066890;28;20039;-67
2022/10/09 08:33:36;;;;;;;1.40;1.30;;;19.70;60.90;;;;;;5066806;28;20028;-68
2022/10/09 08:36:10;;;;;;;1.80;1.35;;;19.70;60.90;;;;;;5066756;28;20037;-69
2022/10/09 08:38:37;;;;;;;1.25;1.13;;;19.70;60.90;;;;;;5066776;28;20036;-67
2022/10/09 08:41:08;;;;;;;1.98;1.60;;;19.70;60.90;;;;;;5066689;28;20021;-68
2022/10/09 08:43:41;;;;;;;1.60;1.50;;;19.70;60.90;;;;;;5066673;28;20025;-68
2022/10/09 08:46:38;;;;;;;1.40;1.30;;;19.70;60.90;;;;;;5066687;28;20088;-69
2022/10/09 08:49:05;;;;;;;1.40;1.30;;;19.80;61.00;;;;;;5066621;28;20025;-69
2022/10/09 08:51:37;;;;;;;1.50;1.40;;;19.80;61.00;;;;;;5066440;28;20027;-69
2022/10/09 08:54:11;;;;;;;1.67;1.40;;;19.80;61.00;;;;;;5066503;28;20301;-69
2022/10/09 08:56:37;;;;;;;1.45;1.35;;;19.70;60.90;;;;;;5066437;28;20021;-69
2022/10/09 08:59:03;;;;;;;1.40;1.30;;;19.70;60.90;;;;;;5066401;28;20209;-68
2022/10/09 09:01:57;;;;;;;1.80;1.45;;;19.80;60.90;;;;;;5066324;28;20032;-67
2022/10/09 09:04:26;;;;;;;1.40;1.30;;;19.80;60.90;;;;;;5066139;28;20013;-68
2022/10/09 09:06:52;;;;;;;1.75;1.50;;;19.80;60.90;;;;;;5066240;28;20072;-69
2022/10/09 09:09:40;;;;;;;1.55;1.45;;;19.80;61.00;;;;;;5066179;28;20017;-68
2022/10/09 09:12:29;;;;;;;1.40;1.20;;;19.80;60.90;;;;;;5065896;28;20060;-68
2022/10/09 09:15:15;;;;;;;1.20;1.10;;;19.80;60.90;;;;;;5066079;28;20025;-68
2022/10/09 09:17:44;;;;;;;2.38;1.38;;;19.80;60.90;;;;;;5064908;28;20062;-68
2022/10/09 09:20:19;;;;;;;1.38;1.27;;;19.80;60.90;;;;;;5065987;28;20024;-68
2022/10/09 09:22:48;;;;;;;1.30;1.20;;;19.80;60.90;;;;;;5065957;28;20049;-68
2022/10/09 09:25:21;;;;;;;1.73;1.35;;;19.80;60.90;;;;;;5064546;28;20120;-68
2022/10/09 09:27:47;;;;;;;1.42;1.33;;;19.80;61.00;;;;;;5065899;28;20021;-68
2022/10/09 09:30:16;;;;;;;1.25;1.15;;;19.80;61.60;;;;;;5065811;28;20025;-67
2022/10/09 09:32:55;;;;;;;1.30;1.17;;;19.80;61.00;;;;;;5065647;28;20021;-69
2022/10/09 09:35:28;;;;;;;1.50;1.40;;;19.80;60.90;;;;;;5065724;28;20017;-68
2022/10/09 09:37:54;;;;;;;1.85;1.55;;;19.80;60.90;;;;;;5065700;28;20024;-69
2022/10/09 09:40:24;;;;;;;1.00;1.00;;;19.80;60.90;;;;;;5065646;28;20013;-69
2022/10/09 09:42:50;;;;;;;1.42;1.33;;;19.80;60.90;;;;;;5065525;28;20013;-68
2022/10/09 09:45:20;;;;;;;1.35;1.25;;;19.80;61.00;;;;;;5065527;28;20033;-68
2022/10/09 09:48:05;;;;;;;1.38;1.27;;;19.90;61.00;;;;;;5065529;28;20021;-69
2022/10/09 09:50:38;;;;;;;1.58;1.27;;;19.80;60.90;;;;;;5065449;28;20025;-69
2022/10/09 09:53:16;;;;;;;1.50;1.40;;;19.80;60.90;;;;;;5065325;28;20027;-68
2022/10/09 09:55:42;;;;;;;1.30;1.20;;;19.90;60.90;;;;;;5065366;28;20013;-68
2022/10/09 09:58:15;;;;;;;1.40;1.20;;;19.90;60.90;;;;;;5064073;28;20213;-68
2022/10/09 10:00:53;;;;;;;1.40;1.30;;;19.80;60.90;;;;;;5065267;28;20013;-68
2022/10/09 10:03:20;;;;;;;1.42;1.33;;;19.90;61.00;;;;;;5065264;28;20043;-68
2022/10/09 10:05:46;;;;;;;2.10;1.25;;;19.90;61.00;;;;;;5065127;28;20021;-69
2022/10/09 10:08:29;;;;;;;1.30;1.20;;;19.90;60.90;;;;;;5065079;28;20013;-69
2022/10/09 10:10:58;;;;;;;1.88;1.63;;;19.90;60.90;;;;;;5065034;28;20016;-68
2022/10/09 10:13:34;;;;;;;1.58;1.48;;;19.90;60.90;;;;;;5064744;28;20050;-67
2022/10/09 10:16:01;;;;;;;1.30;1.10;;;19.90;60.90;;;;;;5064975;28;20013;-69
2022/10/09 10:18:31;;;;;;;1.42;1.33;;;19.90;60.90;;;;;;5064883;28;20080;-67
2022/10/09 10:21:05;;;;;;;1.42;1.33;;;19.90;60.90;;;;;;5065127;28;20017;-68
2022/10/09 10:23:40;;;;;;;1.30;1.20;;;19.90;60.90;;;;;;5064796;28;20313;-68
2022/10/09 10:26:29;;;;;;;1.63;1.38;;;20.00;60.90;;;;;;5064745;28;20021;-68
2022/10/09 10:29:18;;;;;;;1.33;1.23;;;20.00;60.90;;;;;;5064689;28;20357;-68
2022/10/09 10:31:44;;;;;;;1.33;1.23;;;20.00;60.90;;;;;;5064570;28;20043;-67
2022/10/09 10:34:22;;;;;;;1.30;1.20;;;20.00;60.90;;;;;;5064546;28;20025;-68
2022/10/09 10:36:59;;;;;;;1.27;1.20;;;20.00;60.90;;;;;;5064167;28;20025;-67
2022/10/09 10:39:57;;;;;;;1.23;1.00;;;20.00;60.90;;;;;;5064494;28;20242;-68
2022/10/09 10:42:45;;;;;;;;;;;20.00;60.90;;;;;;5064860;28;20021;-68
2022/10/09 10:45:23;;;;;;;1.20;1.10;;;20.00;60.90;;;;;;5064331;28;19907;-67
2022/10/09 10:47:55;;;;;;;1.33;1.20;;;20.00;61.00;;;;;;5064355;28;20028;-69
2022/10/09 10:50:23;;;;;;;1.30;1.20;;;20.00;61.00;;;;;;5064232;28;20025;-68
2022/10/09 10:53:00;;;;;;;1.00;1.00;;;20.00;61.00;;;;;;5064146;28;20047;-67
2022/10/09 10:55:55;;;;;;;1.23;1.13;;;20.00;61.00;;;;;;5064188;28;20020;-68
2022/10/09 10:58:44;;;;;;;1.45;1.27;;;20.00;60.90;;;;;;5064139;28;20025;-67
2022/10/09 11:01:47;;;;;;;1.50;1.40;;;20.00;61.60;;;;;;5064110;28;20021;-67
2022/10/09 11:04:41;;;;;;;1.25;1.15;;;20.00;60.90;;;;;;5052744;28;20036;-67
2022/10/09 11:07:28;;;;;;;1.55;1.45;;;20.00;60.90;;;;;;5064032;28;20089;-69
2022/10/09 11:10:04;;;;;;;1.30;1.20;;;20.00;61.00;;;;;;5064275;28;20016;-68
2022/10/09 11:12:57;;;;;;;1.42;1.20;;;20.00;61.00;;;;;;5063549;28;20284;-68
2022/10/09 11:15:48;;;;;;;0.90;0.90;;;20.10;61.00;;;;;;5063892;28;20033;-68
2022/10/09 11:18:30;;;;;;;1.30;1.20;;;20.10;61.00;;;;;;5064054;28;20045;-68
2022/10/09 11:21:24;;;;;;;1.17;1.08;;;20.10;61.00;;;;;;5063805;28;20147;-68
2022/10/09 11:24:25;;;;;;;1.55;1.38;;;20.10;60.90;;;;;;5063763;28;20040;-69
2022/10/09 11:27:04;;;;;;;1.25;1.20;;;20.10;60.90;;;;;;5063667;28;20021;-67
2022/10/09 11:29:38;;;;;;;1.27;1.10;;;20.10;60.90;;;;;;5063649;28;20013;-68
2022/10/09 11:32:21;;;;;;;1.30;1.20;;;20.10;60.90;;;;;;5063527;28;20051;-68
2022/10/09 11:35:00;;;;;;;1.20;1.10;;;20.10;60.80;;;;;;5063580;28;20021;-67
2022/10/09 11:37:33;;;;;;;1.13;1.00;;;20.10;60.80;;;;;;5063546;28;20024;-68
2022/10/09 11:40:06;;;;;;;1.42;1.20;;;20.20;60.90;;;;;;5063546;28;20017;-67
2022/10/09 11:42:32;;;;;;;1.33;1.23;;;20.20;60.90;;;;;;5063509;28;20024;-68
2022/10/09 11:45:37;;;;;;;1.75;1.40;;;20.20;60.90;;;;;;5063419;28;20054;-68
2022/10/09 11:48:21;;;;;;;1.33;1.23;;;20.20;60.80;;;;;;5062250;28;20033;-68
2022/10/09 11:50:55;;;;;;;1.60;1.50;;;20.20;60.80;;;;;;5063407;28;20305;-68
2022/10/09 11:53:23;;;;;;;1.42;1.33;;;20.20;60.80;;;;;;5063266;28;20217;-67
2022/10/09 11:56:05;;;;;;;1.02;1.00;;;20.20;60.70;;;;;;5063359;28;20036;-67
2022/10/09 11:58:31;;;;;;;1.45;1.35;;;20.30;61.40;;;;;;5063314;28;20016;-68
2022/10/09 12:01:20;;;;;;;1.55;1.45;;;20.30;60.80;;;;;;5062926;28;20017;-68
2022/10/09 12:03:46;;;;;;;1.48;1.15;;;20.30;60.70;;;;;;5063267;28;20317;-68
2022/10/09 12:06:16;;;;;;;1.42;1.33;;;20.30;60.80;;;;;;5063199;28;20017;-67
2022/10/09 12:09:06;;;;;;;1.17;1.08;;;20.30;60.70;;;;;;5063177;28;20013;-68
2022/10/09 12:11:33;;;;;;;1.10;1.00;;;20.30;60.70;;;;;;5062944;28;20013;-68
2022/10/09 12:14:10;;;;;;;1.30;1.20;;;20.30;60.80;;;;;;5063035;28;20044;-68
2022/10/09 12:16:40;;;;;;;1.45;1.35;;;20.30;60.70;;;;;;5064205;28;20013;-68
2022/10/09 12:19:37;;;;;;;1.48;1.10;;;20.30;60.70;;;;;;5064999;28;20017;-69
2022/10/09 12:22:40;;;;;;;1.15;1.00;;;20.40;60.60;;;;;;5064290;28;20056;-67
2022/10/09 12:25:24;;;;;;;1.40;1.30;;;20.40;60.60;;;;;;5055415;28;20047;-69
2022/10/09 12:27:54;;;;;;;1.30;1.20;;;20.40;60.60;;;;;;5066128;28;20021;-69
2022/10/09 12:30:34;;;;;;;1.10;1.10;;;20.40;60.60;;;;;;5066707;28;20025;-68
2022/10/09 12:33:04;;;;;;;1.40;1.30;;;20.40;60.60;;;;;;5066340;28;20017;-69
2022/10/09 12:35:36;;;;;;;1.40;1.30;;;20.40;60.50;;;;;;5066138;28;20021;-69
2022/10/09 12:38:21;;;;;;;1.27;1.17;;;20.40;60.60;;;;;;5065063;28;20017;-68
2022/10/09 12:40:47;;;;;;;1.35;1.25;;;20.50;60.40;;;;;;5065054;28;20013;-68
2022/10/09 12:43:17;;;;;;;1.30;1.20;;;20.50;60.40;;;;;;5063485;28;20017;-68
2022/10/09 12:45:45;;;;;;;1.23;1.13;;;20.60;60.30;;;;;;5063469;28;20027;-68
2022/10/09 12:48:12;;;;;;;;;;;20.60;60.20;;;;;;5064120;28;20027;-68
2022/10/09 12:50:38;;;;;;;1.20;1.10;;;20.70;60.00;;;;;;5063608;28;19907;-67
2022/10/09 12:53:12;;;;;;;1.35;1.25;;;20.60;60.00;;;;;;5062734;28;20040;-67
2022/10/09 12:55:44;;;;;;;1.38;1.27;;;20.70;60.00;;;;;;5062835;28;20043;-68
2022/10/09 12:58:38;;;;;;;2.08;1.25;;;20.80;59.90;;;;;;5062823;28;20024;-68
2022/10/09 13:01:12;;;;;;;1.52;1.42;;;20.80;59.60;;;;;;5065644;28;20066;-68
2022/10/09 13:03:40;;;;;;;1.45;1.10;;;20.80;59.60;;;;;;5066353;28;20124;-68
2022/10/09 13:06:16;;;;;;;1.20;1.10;;;20.80;59.70;;;;;;5066347;28;20204;-69